Time;durP1;ratioP1;P1;durP2;ratioP2;P2;SDS_P1;SDS_P2;PMS_P1;PMS_P2;Temp;Humidity;BMP_temperature;BMP_pressure;BME280_temperature;BME280_humidity;BME280_pressure;Samples;Min_cycle;Max_cycle;Signal;HPM_P1;HPM_P2
2021/03/31 00:00:46;;;;;;;5.43;2.25;;;16.30;36.90;;;;;;5032581;28;20594;-77
2021/03/31 00:03:32;;;;;;;2.80;1.40;;;16.20;36.90;;;;;;5032544;28;20259;-77
2021/03/31 00:06:19;;;;;;;2.33;1.50;;;16.20;36.90;;;;;;5032246;28;20204;-78
2021/03/31 00:09:04;;;;;;;3.63;1.75;;;16.10;37.00;;;;;;5003568;28;20252;-78
2021/03/31 00:11:48;;;;;;;2.95;1.55;;;16.00;37.10;;;;;;5032290;28;20590;-77
2021/03/31 00:14:36;;;;;;;5.15;1.83;;;16.00;37.20;;;;;;5017372;28;20319;-78
2021/03/31 00:17:27;;;;;;;3.72;1.80;;;15.90;37.70;;;;;;5017683;28;20665;-78
2021/03/31 00:20:15;;;;;;;4.43;2.05;;;15.80;38.20;;;;;;5021419;28;20243;-78
2021/03/31 00:23:05;;;;;;;3.42;1.80;;;15.80;37.90;;;;;;5032061;28;20204;-76
2021/03/31 00:25:50;;;;;;;5.63;2.08;;;15.70;37.60;;;;;;5017270;28;20188;-78
2021/03/31 00:28:34;;;;;;;2.10;1.30;;;15.70;37.70;;;;;;5017120;28;20248;-77
2021/03/31 00:31:19;;;;;;;3.28;1.75;;;15.70;37.90;;;;;;5031871;28;20711;-76
2021/03/31 00:34:03;;;;;;;3.00;1.45;;;15.60;38.20;;;;;;5031702;28;20207;-77
2021/03/31 00:36:50;;;;;;;3.05;1.92;;;15.60;38.00;;;;;;5031552;28;20265;-76
2021/03/31 00:39:34;;;;;;;3.10;1.50;;;15.60;38.20;;;;;;5032010;28;20712;-76
2021/03/31 00:42:18;;;;;;;3.30;1.70;;;15.60;38.10;;;;;;5031614;28;20312;-76
2021/03/31 00:45:04;;;;;;;3.28;1.38;;;15.60;38.20;;;;;;5017005;28;20200;-76
2021/03/31 00:47:48;;;;;;;4.05;1.92;;;15.60;38.20;;;;;;5031583;28;20656;-77
2021/03/31 00:50:33;;;;;;;3.25;2.00;;;15.60;38.30;;;;;;5016995;28;20244;-77
2021/03/31 00:53:39;;;;;;;4.30;1.63;;;15.50;38.30;;;;;;5032007;28;20665;-77
2021/03/31 00:56:26;;;;;;;3.83;1.60;;;15.50;39.00;;;;;;5020068;28;20300;-76
2021/03/31 00:59:13;;;;;;;2.45;1.63;;;15.40;39.10;;;;;;5003465;28;20192;-77
2021/03/31 01:01:57;;;;;;;3.55;1.73;;;15.40;38.50;;;;;;5019194;28;20262;-76
2021/03/31 01:04:44;;;;;;;2.78;2.00;;;15.40;38.60;;;;;;5035775;28;20552;-76
2021/03/31 01:07:28;;;;;;;3.58;1.70;;;15.30;39.00;;;;;;5020347;28;20228;-76
2021/03/31 01:10:16;;;;;;;5.10;1.88;;;15.30;40.20;;;;;;5005983;28;20184;-76
2021/03/31 01:13:26;;;;;;;2.05;1.52;;;15.20;40.30;;;;;;5035137;28;20315;-77
2021/03/31 01:16:19;;;;;;;2.80;1.80;;;15.20;39.80;;;;;;5006015;28;20605;-77
2021/03/31 01:19:42;;;;;;;8.55;2.80;;;15.20;40.00;;;;;;5006410;28;20196;-76
2021/03/31 01:22:53;;;;;;;6.60;2.03;;;15.20;40.90;;;;;;5035050;28;20765;-78
2021/03/31 01:25:52;;;;;;;4.55;2.35;;;15.20;39.80;;;;;;5035367;28;20216;-77
2021/03/31 01:29:01;;;;;;;4.53;2.55;;;15.20;40.70;;;;;;5020082;28;20308;-77
2021/03/31 01:32:24;;;;;;;4.32;2.40;;;15.10;40.70;;;;;;5020510;28;20227;-77
2021/03/31 01:35:15;;;;;;;5.13;2.75;;;15.10;41.50;;;;;;4993518;28;20255;-76
2021/03/31 01:38:04;;;;;;;5.07;2.20;;;15.00;41.00;;;;;;5019881;28;20196;-76
2021/03/31 01:40:50;;;;;;;4.70;2.08;;;15.00;41.50;;;;;;5020203;28;20715;-76
2021/03/31 01:43:35;;;;;;;3.92;2.20;;;14.90;41.60;;;;;;5035140;28;20244;-77
2021/03/31 01:46:27;;;;;;;4.30;2.60;;;14.90;41.90;;;;;;5034970;28;20220;-77
2021/03/31 01:49:12;;;;;;;3.17;2.35;;;14.90;42.20;;;;;;5006362;28;20188;-76
2021/03/31 01:52:05;;;;;;;4.43;2.55;;;14.80;41.60;;;;;;5036136;28;20276;-77
2021/03/31 01:54:51;;;;;;;3.70;2.33;;;14.80;41.30;;;;;;5042551;28;20935;-77
2021/03/31 01:57:36;;;;;;;3.35;2.20;;;14.80;41.00;;;;;;5059457;28;20238;-77
2021/03/31 02:00:21;;;;;;;4.03;2.88;;;14.70;41.70;;;;;;5074952;28;20318;-76
2021/03/31 02:03:07;;;;;;;4.90;2.70;;;14.70;41.20;;;;;;5074576;28;20246;-75
2021/03/31 02:05:55;;;;;;;3.55;2.28;;;14.60;41.30;;;;;;5074987;28;20219;-77
2021/03/31 02:08:41;;;;;;;6.22;3.38;;;14.60;41.20;;;;;;5074537;28;20264;-76
2021/03/31 02:11:29;;;;;;;2.75;2.10;;;14.60;41.00;;;;;;5077663;28;20238;-77
2021/03/31 02:14:16;;;;;;;5.55;2.35;;;14.50;40.80;;;;;;5074709;28;20187;-75
2021/03/31 02:17:02;;;;;;;5.50;2.33;;;14.50;41.30;;;;;;5074296;28;20188;-75
2021/03/31 02:19:48;;;;;;;2.95;2.30;;;14.40;40.90;;;;;;5074709;28;20492;-76
2021/03/31 02:22:36;;;;;;;7.40;2.95;;;14.40;41.10;;;;;;5045027;28;20235;-76
2021/03/31 02:25:23;;;;;;;6.93;2.80;;;14.30;41.50;;;;;;5051558;28;20599;-76
2021/03/31 02:28:08;;;;;;;5.18;2.70;;;14.30;42.10;;;;;;5047529;28;20207;-77
2021/03/31 02:30:52;;;;;;;3.50;2.40;;;14.30;41.50;;;;;;5039855;28;20595;-77
2021/03/31 02:33:37;;;;;;;2.88;2.47;;;14.20;42.20;;;;;;5042603;28;20199;-76
2021/03/31 02:36:23;;;;;;;6.10;3.28;;;14.20;41.70;;;;;;5054062;28;20546;-77
2021/03/31 02:39:10;;;;;;;4.85;2.47;;;14.20;42.50;;;;;;5037901;28;20202;-75
2021/03/31 02:41:56;;;;;;;3.55;2.25;;;14.20;42.10;;;;;;5033971;28;20244;-77
2021/03/31 02:44:43;;;;;;;4.75;2.65;;;14.10;42.10;;;;;;5034425;28;20188;-76
2021/03/31 02:47:30;;;;;;;3.60;2.42;;;14.10;42.40;;;;;;5037764;28;20187;-77
2021/03/31 02:50:19;;;;;;;3.25;2.30;;;14.10;42.70;;;;;;5032982;28;20168;-77
2021/03/31 02:53:04;;;;;;;6.03;3.10;;;14.10;42.70;;;;;;5042942;28;20714;-77
2021/03/31 02:55:50;;;;;;;5.38;2.65;;;14.10;42.80;;;;;;5054504;28;20196;-76
2021/03/31 02:58:38;;;;;;;5.53;2.83;;;14.10;43.20;;;;;;5038520;28;20548;-77
2021/03/31 03:01:26;;;;;;;3.20;2.50;;;14.10;43.50;;;;;;5038586;28;20208;-76
2021/03/31 03:04:10;;;;;;;3.80;2.60;;;14.10;42.70;;;;;;5038545;28;20227;-77
2021/03/31 03:06:55;;;;;;;4.85;2.72;;;14.10;43.70;;;;;;5038339;28;20675;-76
2021/03/31 03:09:43;;;;;;;4.10;2.22;;;14.00;43.70;;;;;;5038523;28;20235;-76
2021/03/31 03:12:28;;;;;;;4.45;2.20;;;14.00;43.70;;;;;;5038461;28;20215;-76
2021/03/31 03:15:16;;;;;;;4.60;2.72;;;14.00;43.40;;;;;;5038305;28;20851;-76
2021/03/31 03:18:03;;;;;;;2.47;2.03;;;14.00;43.10;;;;;;5038012;28;20223;-76
2021/03/31 03:20:49;;;;;;;4.82;2.65;;;14.00;43.40;;;;;;5053473;28;20233;-76
2021/03/31 03:23:35;;;;;;;5.18;2.60;;;14.00;44.20;;;;;;5037908;28;20194;-76
2021/03/31 03:26:20;;;;;;;4.97;2.65;;;14.00;43.50;;;;;;5041861;28;20183;-76
2021/03/31 03:29:06;;;;;;;3.90;2.20;;;13.90;44.00;;;;;;5038159;28;20215;-76
2021/03/31 03:31:52;;;;;;;3.03;2.70;;;13.90;43.90;;;;;;5053391;28;20246;-77
2021/03/31 03:34:38;;;;;;;3.28;2.58;;;13.90;44.40;;;;;;5038088;28;20258;-77
2021/03/31 03:37:25;;;;;;;6.35;3.15;;;13.90;43.40;;;;;;5037296;28;20180;-75
2021/03/31 03:40:13;;;;;;;2.58;2.20;;;13.90;43.80;;;;;;5053066;28;20211;-76
2021/03/31 03:42:57;;;;;;;3.15;2.15;;;13.90;43.10;;;;;;5037570;28;20207;-76
2021/03/31 03:45:43;;;;;;;5.20;2.70;;;13.80;43.10;;;;;;5052890;28;20223;-76
2021/03/31 03:48:28;;;;;;;4.10;2.63;;;13.80;43.40;;;;;;5052712;28;20216;-75
2021/03/31 03:51:15;;;;;;;3.33;2.80;;;13.80;44.30;;;;;;5038114;28;20219;-77
2021/03/31 03:54:09;;;;;;;6.25;2.75;;;13.80;44.30;;;;;;5052754;28;20222;-75
2021/03/31 03:56:53;;;;;;;3.35;2.60;;;13.70;44.10;;;;;;5037444;28;20219;-76
2021/03/31 03:59:37;;;;;;;5.65;3.05;;;13.70;44.00;;;;;;5052725;28;20245;-76
2021/03/31 04:02:23;;;;;;;6.50;3.10;;;13.70;44.70;;;;;;5042115;28;20717;-76
2021/03/31 04:05:10;;;;;;;3.55;2.65;;;13.70;44.90;;;;;;5037385;28;20552;-76
2021/03/31 04:07:55;;;;;;;6.13;2.40;;;13.60;44.80;;;;;;5037068;28;20192;-76
2021/03/31 04:10:42;;;;;;;3.25;2.15;;;13.60;44.00;;;;;;5060074;28;20295;-76
2021/03/31 04:13:28;;;;;;;5.05;2.83;;;13.60;44.30;;;;;;5038988;28;20218;-77
2021/03/31 04:16:13;;;;;;;9.65;2.80;;;13.60;44.80;;;;;;5038245;28;20263;-76
2021/03/31 04:19:13;;;;;;;6.68;3.05;;;13.60;44.20;;;;;;5029573;28;20268;-76
2021/03/31 04:21:57;;;;;;;5.53;3.00;;;13.60;44.70;;;;;;5030365;28;20706;-76
2021/03/31 04:24:42;;;;;;;3.03;2.53;;;13.60;44.40;;;;;;5062530;28;20254;-77
2021/03/31 04:27:28;;;;;;;5.82;3.33;;;13.50;44.10;;;;;;5036505;28;20195;-75
2021/03/31 04:30:14;;;;;;;4.05;2.47;;;13.50;44.60;;;;;;5023164;28;20741;-76
2021/03/31 04:33:02;;;;;;;5.57;2.72;;;13.50;44.40;;;;;;5052100;28;20219;-76
2021/03/31 04:35:46;;;;;;;7.07;3.78;;;13.40;44.90;;;;;;5036041;28;20691;-76
2021/03/31 04:38:34;;;;;;;5.75;2.97;;;13.40;45.00;;;;;;5036666;28;20722;-77
2021/03/31 04:41:18;;;;;;;6.65;3.22;;;13.40;44.60;;;;;;5039220;28;20255;-77
2021/03/31 04:44:03;;;;;;;7.20;2.80;;;13.40;44.50;;;;;;5052105;28;20227;-77
2021/03/31 04:46:47;;;;;;;6.88;2.72;;;13.40;44.50;;;;;;5055814;28;20188;-76
2021/03/31 04:49:35;;;;;;;4.15;2.45;;;13.40;44.20;;;;;;5052095;28;20184;-76
2021/03/31 04:52:19;;;;;;;5.90;3.00;;;13.40;44.30;;;;;;5036642;28;20687;-76
2021/03/31 04:55:05;;;;;;;5.82;3.40;;;13.30;45.40;;;;;;5036922;28;20621;-76
2021/03/31 04:57:49;;;;;;;4.68;3.03;;;13.30;45.40;;;;;;5036477;28;20191;-77
2021/03/31 05:00:33;;;;;;;3.15;2.42;;;13.30;45.20;;;;;;5051920;28;20227;-76
2021/03/31 05:03:18;;;;;;;3.40;2.95;;;13.30;45.10;;;;;;5058028;28;20287;-76
2021/03/31 05:06:03;;;;;;;5.50;3.30;;;13.30;45.20;;;;;;5037097;28;20730;-76
2021/03/31 05:08:47;;;;;;;5.85;3.00;;;13.30;45.00;;;;;;5038676;28;20200;-76
2021/03/31 05:11:33;;;;;;;3.78;2.95;;;13.30;45.50;;;;;;5033592;28;20311;-76
2021/03/31 05:14:17;;;;;;;4.00;2.78;;;13.30;45.10;;;;;;5056738;28;20191;-75
2021/03/31 05:17:02;;;;;;;14.57;3.17;;;13.30;45.00;;;;;;5047357;28;20698;-76
2021/03/31 05:19:46;;;;;;;4.60;2.22;;;13.30;44.70;;;;;;5073107;28;20207;-77
2021/03/31 05:22:31;;;;;;;4.25;3.50;;;13.30;44.60;;;;;;5057604;28;20238;-75
2021/03/31 05:25:16;;;;;;;5.50;2.47;;;13.20;44.50;;;;;;5073663;28;20257;-75
2021/03/31 05:28:00;;;;;;;7.07;2.90;;;13.20;44.80;;;;;;5081961;28;20550;-76
2021/03/31 05:30:45;;;;;;;7.65;3.90;;;13.20;45.00;;;;;;5073097;28;20206;-75
2021/03/31 05:33:29;;;;;;;5.90;2.70;;;13.20;44.80;;;;;;5085211;28;20206;-74
2021/03/31 05:36:13;;;;;;;6.20;3.13;;;13.20;45.10;;;;;;5025500;28;20200;-76
2021/03/31 05:38:58;;;;;;;6.68;2.95;;;13.20;45.30;;;;;;5018243;28;20545;-75
2021/03/31 05:41:42;;;;;;;4.15;2.35;;;13.20;45.30;;;;;;5032036;28;20275;-75
2021/03/31 05:44:28;;;;;;;3.50;2.88;;;13.20;45.60;;;;;;5004141;28;20165;-75
2021/03/31 05:47:31;;;;;;;5.50;3.30;;;13.20;45.40;;;;;;5018551;28;20165;-76
2021/03/31 05:50:16;;;;;;;5.85;3.67;;;13.20;46.10;;;;;;5020607;28;20220;-75
2021/03/31 05:53:00;;;;;;;6.85;3.08;;;13.20;46.10;;;;;;5021179;28;20278;-76
2021/03/31 05:55:45;;;;;;;6.53;2.88;;;13.30;46.50;;;;;;5023625;28;20180;-76
2021/03/31 05:58:30;;;;;;;4.20;2.22;;;13.30;45.60;;;;;;5036483;28;20272;-76
2021/03/31 06:01:15;;;;;;;13.07;3.35;;;13.30;46.50;;;;;;5040114;28;20706;-77
2021/03/31 06:04:01;;;;;;;7.90;2.65;;;13.40;46.20;;;;;;5055469;28;20215;-75
2021/03/31 06:06:45;;;;;;;6.28;4.30;;;13.40;46.40;;;;;;5026058;28;20188;-76
2021/03/31 06:09:29;;;;;;;5.13;3.10;;;13.50;46.80;;;;;;5055623;28;20227;-76
2021/03/31 06:12:14;;;;;;;6.30;4.20;;;13.50;47.00;;;;;;5041275;28;20222;-77
2021/03/31 06:15:36;;;;;;;8.68;4.28;;;13.50;47.10;;;;;;5054726;28;20753;-76
2021/03/31 06:18:20;;;;;;;4.88;2.88;;;13.50;46.90;;;;;;5055499;28;20204;-77
2021/03/31 06:21:05;;;;;;;5.50;3.50;;;13.60;46.30;;;;;;5040804;28;20667;-76
2021/03/31 06:26:42;;;;;;;6.43;3.17;;;13.80;46.50;;;;;;5062059;28;20179;-78
2021/03/31 06:29:44;;;;;;;6.40;4.10;;;13.80;46.70;;;;;;5061748;28;20152;-76
2021/03/31 06:32:39;;;;;;;6.95;5.00;;;13.90;47.30;;;;;;5075850;28;20704;-77
2021/03/31 06:35:27;;;;;;;6.55;4.60;;;13.90;47.60;;;;;;5060550;28;20187;-75
2021/03/31 06:38:15;;;;;;;10.00;4.70;;;14.10;46.90;;;;;;5076499;28;20176;-77
2021/03/31 06:41:28;;;;;;;7.85;4.82;;;14.20;47.00;;;;;;5075263;28;20192;-76
2021/03/31 06:47:33;;;;;;;7.65;4.25;;;14.40;47.50;;;;;;5065323;28;20693;-76
2021/03/31 06:50:10;;;;;;;10.32;4.40;;;14.50;47.20;;;;;;5054466;28;21341;-75
2021/03/31 06:52:59;;;;;;;5.97;4.90;;;14.70;46.90;;;;;;5038823;28;21259;-75
2021/03/31 06:55:58;;;;;;;5.95;3.40;;;14.80;47.30;;;;;;5039927;28;20196;-77
2021/03/31 06:58:42;;;;;;;9.25;3.55;;;15.00;46.80;;;;;;5038873;28;20710;-75
2021/03/31 07:01:32;;;;;;;7.78;5.63;;;15.20;46.50;;;;;;5056848;28;20250;-75
2021/03/31 07:04:17;;;;;;;5.55;4.05;;;15.40;46.50;;;;;;5046891;28;20706;-77
2021/03/31 07:07:09;;;;;;;8.50;4.43;;;15.80;46.60;;;;;;5041115;28;20248;-75
2021/03/31 07:10:18;;;;;;;5.97;3.93;;;16.50;47.10;;;;;;5047084;28;20184;-76
2021/03/31 07:13:02;;;;;;;17.27;4.67;;;17.40;46.50;;;;;;5038256;28;20615;-75
2021/03/31 07:15:48;;;;;;;8.33;3.60;;;18.40;47.20;;;;;;5038273;28;20641;-75
2021/03/31 07:18:33;;;;;;;6.10;4.10;;;19.60;47.80;;;;;;5038083;28;20603;-76
2021/03/31 07:21:20;;;;;;;6.87;3.50;;;20.60;45.60;;;;;;5053296;28;20642;-76
2021/03/31 07:24:07;;;;;;;5.43;3.97;;;21.50;45.10;;;;;;5053573;28;20637;-73
2021/03/31 07:26:52;;;;;;;10.83;4.50;;;22.50;44.90;;;;;;5052767;28;20570;-76
2021/03/31 07:29:38;;;;;;;7.67;3.27;;;23.20;43.00;;;;;;5038137;28;20733;-76
2021/03/31 07:32:23;;;;;;;4.97;3.50;;;23.90;43.70;;;;;;5038144;28;20737;-76
2021/03/31 07:35:11;;;;;;;6.43;3.93;;;24.70;43.50;;;;;;5037924;28;20593;-76
2021/03/31 07:38:00;;;;;;;7.93;4.20;;;25.20;41.10;;;;;;5052903;28;20625;-77
2021/03/31 07:40:47;;;;;;;4.43;3.97;;;25.70;41.30;;;;;;5037987;28;20594;-77
2021/03/31 07:43:43;;;;;;;6.60;4.40;;;26.30;41.40;;;;;;5037902;28;20594;-77
2021/03/31 07:46:34;;;;;;;11.37;4.20;;;26.60;39.10;;;;;;5057177;28;20559;-76
2021/03/31 07:49:23;;;;;;;5.50;3.97;;;26.80;39.10;;;;;;5038014;28;20711;-77
2021/03/31 07:52:07;;;;;;;6.20;4.13;;;27.00;38.50;;;;;;5037478;28;20656;-76
2021/03/31 07:54:56;;;;;;;5.20;3.97;;;27.30;37.70;;;;;;5037962;28;20590;-75
2021/03/31 07:57:40;;;;;;;5.40;4.27;;;27.60;37.10;;;;;;5052301;28;20591;-78
2021/03/31 08:00:53;;;;;;;7.73;4.43;;;27.90;37.80;;;;;;5037557;28;20613;-76
2021/03/31 08:03:43;;;;;;;7.63;4.20;;;28.20;37.40;;;;;;5023592;28;20635;-77
2021/03/31 08:06:32;;;;;;;5.73;4.53;;;28.40;36.10;;;;;;5037122;28;20621;-77
2021/03/31 08:09:22;;;;;;;7.22;5.30;;;28.30;34.70;;;;;;5051298;28;20700;-77
2021/03/31 08:12:07;;;;;;;10.13;5.00;;;27.90;33.40;;;;;;5037428;28;20251;-77
2021/03/31 08:14:51;;;;;;;6.80;4.87;;;28.30;35.70;;;;;;5037266;28;20598;-76
2021/03/31 08:17:40;;;;;;;8.87;4.07;;;28.90;36.20;;;;;;5023045;28;20620;-76
2021/03/31 08:20:24;;;;;;;5.90;4.17;;;29.60;36.20;;;;;;5036952;28;20641;-77
2021/03/31 08:23:11;;;;;;;7.10;4.37;;;30.20;36.00;;;;;;5054637;28;20641;-78
2021/03/31 08:25:55;;;;;;;7.63;4.83;;;30.60;34.90;;;;;;5037126;28;20944;-76
2021/03/31 08:28:42;;;;;;;10.13;4.83;;;31.10;34.90;;;;;;5023101;28;21037;-77
2021/03/31 08:31:29;;;;;;;4.83;4.33;;;31.30;34.90;;;;;;5052114;28;20575;-76
2021/03/31 08:34:15;;;;;;;6.00;4.30;;;31.70;33.90;;;;;;5023810;28;20579;-77
2021/03/31 08:37:04;;;;;;;6.10;5.03;;;32.00;33.80;;;;;;5036657;28;20584;-76
2021/03/31 08:39:49;;;;;;;5.73;3.63;;;32.40;33.20;;;;;;5038923;28;20611;-76
2021/03/31 08:42:33;;;;;;;5.70;3.80;;;32.80;33.60;;;;;;5032642;28;20663;-76
2021/03/31 08:45:29;;;;;;;5.80;4.40;;;33.30;33.40;;;;;;5052335;28;20622;-75
2021/03/31 08:48:40;;;;;;;6.67;4.23;;;33.70;32.50;;;;;;5046440;28;20658;-77
2021/03/31 08:51:16;;;;;;;6.40;4.57;;;34.50;33.00;;;;;;5034166;28;20654;-76
2021/03/31 08:54:02;;;;;;;7.57;5.27;;;34.70;32.60;;;;;;5045385;28;21167;-75
2021/03/31 08:56:28;;;;;;;6.13;4.57;;;34.90;31.60;;;;;;5053252;28;20664;-75
2021/03/31 08:58:56;;;;;;;7.30;4.60;;;35.20;31.50;;;;;;5062203;28;21000;-75
2021/03/31 09:01:35;;;;;;;9.67;5.67;;;35.40;30.90;;;;;;5018183;28;20665;-76
2021/03/31 09:04:20;;;;;;;6.93;4.43;;;35.50;30.10;;;;;;5033399;28;20583;-77
2021/03/31 09:06:46;;;;;;;7.73;4.50;;;35.70;29.80;;;;;;5055759;28;20969;-76
2021/03/31 09:09:14;;;;;;;5.97;4.90;;;35.70;30.00;;;;;;5070741;28;20709;-77
2021/03/31 09:11:40;;;;;;;7.20;5.10;;;35.60;28.50;;;;;;5075039;28;20175;-78
2021/03/31 09:14:16;;;;;;;8.83;4.20;;;36.00;29.50;;;;;;5071379;28;20570;-78
2021/03/31 09:16:57;;;;;;;6.27;4.47;;;36.20;29.10;;;;;;5035961;28;20214;-77
2021/03/31 09:19:24;;;;;;;6.30;4.70;;;36.30;29.10;;;;;;5053218;28;20621;-77
2021/03/31 09:21:50;;;;;;;5.87;5.27;;;36.30;29.00;;;;;;5054347;28;20622;-78
2021/03/31 09:24:20;;;;;;;6.50;5.10;;;36.30;29.10;;;;;;5067286;28;20591;-76
2021/03/31 09:26:58;;;;;;;5.50;4.93;;;36.50;28.70;;;;;;5020512;28;21075;-77
2021/03/31 09:29:26;;;;;;;5.83;5.23;;;36.50;28.60;;;;;;5020583;28;20648;-77
2021/03/31 09:31:52;;;;;;;4.83;4.43;;;36.30;28.20;;;;;;5020398;28;20587;-77
2021/03/31 09:34:21;;;;;;;5.63;4.77;;;36.30;28.50;;;;;;5037141;28;20578;-77
2021/03/31 09:37:14;;;;;;;7.30;4.87;;;36.40;28.20;;;;;;5040198;28;20575;-77
2021/03/31 09:39:59;;;;;;;6.40;4.40;;;36.50;28.30;;;;;;5055133;28;20571;-79
2021/03/31 09:42:30;;;;;;;6.27;4.50;;;36.40;27.70;;;;;;5037008;28;20646;-79
2021/03/31 09:45:00;;;;;;;7.10;4.77;;;36.40;28.00;;;;;;5020466;28;20707;-77
2021/03/31 09:47:31;;;;;;;6.80;5.30;;;36.40;27.50;;;;;;5005158;28;20595;-77
2021/03/31 09:49:57;;;;;;;5.50;4.90;;;36.30;27.20;;;;;;5017041;28;20946;-75
2021/03/31 09:52:30;;;;;;;6.10;5.10;;;36.20;27.70;;;;;;5037052;28;20617;-77
2021/03/31 09:55:06;;;;;;;7.17;5.17;;;36.30;27.20;;;;;;5032410;28;20591;-76
2021/03/31 09:57:36;;;;;;;8.77;4.87;;;36.40;27.50;;;;;;5020311;28;20587;-75
2021/03/31 10:00:08;;;;;;;5.83;5.33;;;36.50;27.20;;;;;;5056369;28;20577;-76
2021/03/31 10:02:44;;;;;;;5.87;5.27;;;36.50;26.80;;;;;;5038201;28;20648;-76
2021/03/31 10:05:20;;;;;;;5.53;4.70;;;36.20;26.50;;;;;;5054355;28;20560;-76
2021/03/31 10:07:54;;;;;;;5.77;4.77;;;36.30;26.60;;;;;;5019661;28;20578;-76
2021/03/31 10:10:43;;;;;;;8.00;5.50;;;36.30;26.60;;;;;;5019905;28;20583;-77
2021/03/31 10:13:09;;;;;;;4.77;4.30;;;36.50;27.00;;;;;;5037478;28;21174;-76
2021/03/31 10:15:35;;;;;;;7.67;5.10;;;36.80;27.50;;;;;;5021414;28;21119;-78
2021/03/31 10:18:02;;;;;;;8.67;5.43;;;37.30;27.60;;;;;;5019427;28;20622;-75
2021/03/31 10:20:31;;;;;;;7.20;5.30;;;37.80;27.30;;;;;;5062316;28;20579;-75
2021/03/31 10:22:57;;;;;;;6.47;5.40;;;38.00;26.70;;;;;;5035531;28;20635;-75
2021/03/31 10:25:24;;;;;;;4.83;3.93;;;38.10;26.90;;;;;;5053595;28;20657;-75
2021/03/31 10:27:50;;;;;;;5.27;4.63;;;38.50;26.70;;;;;;5057462;28;20583;-77
2021/03/31 10:30:44;;;;;;;8.43;5.50;;;38.50;26.40;;;;;;5019778;28;20616;-76
2021/03/31 10:33:10;;;;;;;6.10;4.20;;;38.40;26.20;;;;;;5031152;28;20612;-75
2021/03/31 10:35:58;;;;;;;7.20;4.33;;;38.30;26.10;;;;;;5036113;28;20587;-76
2021/03/31 10:38:54;;;;;;;4.60;4.00;;;38.20;25.50;;;;;;5051932;28;20586;-76
2021/03/31 10:41:38;;;;;;;4.27;3.87;;;37.70;25.50;;;;;;5019051;28;20630;-75
2021/03/31 10:47:18;;;;;;;4.80;4.10;;;37.30;24.90;;;;;;5051648;28;20571;-75
2021/03/31 10:49:51;;;;;;;10.07;4.60;;;37.10;25.80;;;;;;5061216;28;20594;-76
2021/03/31 10:52:26;;;;;;;4.13;3.73;;;36.80;25.70;;;;;;5058444;28;20617;-75
2021/03/31 10:54:56;;;;;;;6.10;5.50;;;36.60;25.50;;;;;;5001584;28;20810;-75
2021/03/31 10:57:29;;;;;;;4.87;4.13;;;36.20;24.90;;;;;;5035100;28;20198;-76
2021/03/31 10:59:57;;;;;;;6.60;4.10;;;36.30;25.40;;;;;;5052631;28;20572;-77
2021/03/31 11:02:24;;;;;;;5.10;3.63;;;36.30;25.90;;;;;;5033885;28;20705;-75
2021/03/31 11:04:49;;;;;;;7.33;4.13;;;36.50;25.80;;;;;;5033185;28;20245;-76
2021/03/31 11:07:15;;;;;;;4.40;2.80;;;36.60;25.60;;;;;;5034704;28;20655;-77
2021/03/31 11:09:43;;;;;;;3.13;2.33;;;36.60;25.40;;;;;;5053113;28;20538;-77
2021/03/31 11:12:09;;;;;;;5.13;3.10;;;36.70;25.60;;;;;;5034785;28;20255;-77
2021/03/31 11:14:38;;;;;;;3.80;3.40;;;36.70;25.60;;;;;;5052895;28;20565;-77
2021/03/31 11:17:07;;;;;;;6.27;3.47;;;36.80;25.50;;;;;;5034654;28;21011;-76
2021/03/31 11:20:03;;;;;;;6.27;3.20;;;36.80;25.10;;;;;;5018063;28;20974;-75
2021/03/31 11:25:35;;;;;;;5.13;3.30;;;36.80;25.10;;;;;;5039101;28;20567;-76
2021/03/31 11:28:07;;;;;;;4.93;2.70;;;36.70;25.10;;;;;;5006104;28;20588;-76
2021/03/31 11:30:34;;;;;;;2.83;2.57;;;36.70;25.30;;;;;;5033562;28;20572;-76
2021/03/31 11:32:59;;;;;;;2.27;2.07;;;36.80;25.10;;;;;;5032708;28;21174;-75
2021/03/31 11:35:25;;;;;;;7.30;3.40;;;36.90;25.20;;;;;;5014653;28;20574;-76
2021/03/31 11:37:51;;;;;;;4.07;3.10;;;36.70;24.70;;;;;;5014140;28;20204;-76
2021/03/31 11:40:17;;;;;;;3.57;2.70;;;36.60;24.80;;;;;;5014311;28;20248;-76
2021/03/31 11:42:43;;;;;;;8.07;3.10;;;36.60;24.80;;;;;;5014277;28;20201;-76
2021/03/31 11:45:09;;;;;;;5.47;2.63;;;36.40;24.60;;;;;;5031385;28;20239;-76
2021/03/31 11:47:35;;;;;;;5.63;3.47;;;36.20;24.70;;;;;;5031700;28;20552;-74
2021/03/31 11:50:01;;;;;;;4.77;2.83;;;36.10;24.70;;;;;;5024311;28;20685;-76
2021/03/31 11:52:26;;;;;;;5.43;2.87;;;36.00;24.80;;;;;;5017543;28;20215;-75
2021/03/31 11:54:52;;;;;;;4.23;2.47;;;36.10;24.80;;;;;;5060407;28;20172;-77
2021/03/31 11:57:20;;;;;;;3.80;2.30;;;35.90;24.60;;;;;;5058293;28;20284;-75
2021/03/31 11:59:49;;;;;;;3.73;2.23;;;35.80;24.70;;;;;;5049849;28;21165;-76
2021/03/31 12:02:23;;;;;;;4.30;3.17;;;35.70;24.60;;;;;;5033524;28;20208;-78
2021/03/31 12:04:49;;;;;;;5.00;1.80;;;35.70;24.90;;;;;;5034238;28;20582;-76
2021/03/31 12:07:18;;;;;;;3.57;1.53;;;35.50;24.30;;;;;;5028705;28;20578;-77
2021/03/31 12:09:43;;;;;;;2.47;1.17;;;35.40;24.30;;;;;;5027045;28;20180;-76
2021/03/31 12:12:11;;;;;;;2.87;1.30;;;35.20;23.90;;;;;;5047224;28;20623;-75
2021/03/31 12:14:37;;;;;;;5.00;1.30;;;35.00;23.80;;;;;;5043964;28;20206;-77
2021/03/31 12:17:04;;;;;;;2.80;1.60;;;34.80;23.90;;;;;;5039583;28;20625;-76
2021/03/31 12:19:30;;;;;;;5.40;1.97;;;34.50;23.80;;;;;;5067886;28;20536;-76
2021/03/31 12:21:56;;;;;;;1.87;1.40;;;34.20;23.70;;;;;;5059034;28;20633;-78
2021/03/31 12:24:23;;;;;;;3.30;1.70;;;33.80;23.50;;;;;;5062474;28;20217;-75
2021/03/31 12:26:49;;;;;;;1.90;1.57;;;33.60;23.70;;;;;;5065746;28;20588;-76
2021/03/31 12:29:16;;;;;;;2.60;1.83;;;33.30;23.70;;;;;;5066637;28;20760;-77
2021/03/31 12:31:42;;;;;;;4.00;1.73;;;32.90;23.70;;;;;;5034998;28;20189;-78
2021/03/31 12:34:11;;;;;;;2.13;1.57;;;32.60;24.00;;;;;;5051448;28;21023;-75
2021/03/31 12:36:37;;;;;;;3.70;2.07;;;32.60;24.30;;;;;;5032846;28;20921;-77
2021/03/31 12:39:04;;;;;;;3.43;1.43;;;32.40;24.30;;;;;;5051671;28;20961;-78
2021/03/31 12:41:32;;;;;;;4.33;1.50;;;32.30;24.40;;;;;;5033618;28;21221;-77
2021/03/31 12:44:00;;;;;;;3.93;1.53;;;32.20;24.60;;;;;;5055389;28;20661;-77
2021/03/31 12:46:27;;;;;;;2.90;1.50;;;32.10;24.50;;;;;;5067864;28;20632;-78
2021/03/31 12:48:52;;;;;;;2.73;1.63;;;32.00;24.50;;;;;;5033047;28;20579;-77
2021/03/31 12:51:34;;;;;;;3.77;1.73;;;31.90;24.70;;;;;;5038497;28;22387;-77
2021/03/31 12:54:08;;;;;;;2.40;1.40;;;31.90;24.90;;;;;;5010297;28;20199;-77
2021/03/31 12:56:36;;;;;;;3.17;1.40;;;31.90;25.00;;;;;;5050838;22;20732;-78
2021/03/31 12:59:02;;;;;;;3.30;1.40;;;32.00;25.00;;;;;;5036425;28;20941;-78
2021/03/31 13:01:28;;;;;;;2.43;1.33;;;31.80;24.80;;;;;;5041240;28;20678;-78
2021/03/31 13:03:54;;;;;;;3.80;1.60;;;31.70;24.80;;;;;;5031007;28;21193;-78
2021/03/31 13:06:23;;;;;;;2.87;1.20;;;31.60;24.80;;;;;;5016479;28;20205;-78
2021/03/31 13:08:52;;;;;;;3.30;1.57;;;31.50;24.90;;;;;;5011678;28;20911;-77
2021/03/31 13:11:18;;;;;;;3.00;1.27;;;31.30;24.70;;;;;;5026932;28;20616;-78
2021/03/31 13:24:45;;;;;;;1.83;1.40;;;29.90;24.80;;;;;;5018602;28;20581;-79
2021/03/31 13:29:52;;;;;;;3.50;1.30;;;29.10;26.00;;;;;;4995480;28;20174;-79
2021/03/31 13:34:52;;;;;;;2.47;1.50;;;28.80;25.60;;;;;;5030756;28;20611;-80
2021/03/31 13:37:23;;;;;;;7.80;1.60;;;28.60;25.70;;;;;;5030504;28;20583;-81
2021/03/31 13:39:54;;;;;;;7.87;1.77;;;28.50;25.80;;;;;;5028173;28;20630;-80
2021/03/31 13:42:21;;;;;;;4.03;1.50;;;28.20;26.10;;;;;;5028072;28;20686;-79
2021/03/31 13:44:48;;;;;;;3.00;1.47;;;28.10;26.20;;;;;;5042854;28;20617;-80
2021/03/31 13:47:24;;;;;;;2.73;1.40;;;28.00;26.30;;;;;;5021437;28;21166;-80
2021/03/31 13:49:57;;;;;;;4.40;1.43;;;27.90;26.30;;;;;;5017973;28;20574;-80
2021/03/31 13:52:29;;;;;;;3.80;1.50;;;27.80;26.70;;;;;;5025759;28;20631;-80
2021/03/31 13:54:57;;;;;;;4.50;1.40;;;27.80;26.80;;;;;;5016331;28;21031;-78
2021/03/31 13:57:25;;;;;;;2.40;1.10;;;27.70;26.90;;;;;;5037432;28;20591;-80
2021/03/31 13:59:51;;;;;;;3.50;1.60;;;27.70;27.10;;;;;;5030718;28;20999;-79
2021/03/31 14:02:17;;;;;;;2.00;1.10;;;27.70;27.00;;;;;;5033092;28;20615;-80
2021/03/31 14:04:42;;;;;;;1.93;1.20;;;27.70;27.20;;;;;;5033709;28;20173;-80
2021/03/31 14:07:08;;;;;;;2.67;1.40;;;27.70;27.20;;;;;;5033112;28;20904;-79
2021/03/31 14:09:36;;;;;;;2.00;1.03;;;27.70;27.20;;;;;;5053944;28;20511;-79
2021/03/31 14:12:02;;;;;;;3.20;1.50;;;27.70;27.40;;;;;;5035417;28;20170;-80
2021/03/31 14:14:28;;;;;;;2.60;1.47;;;27.70;27.50;;;;;;5017720;28;20583;-80
2021/03/31 14:19:26;;;;;;;2.27;1.27;;;27.70;27.50;;;;;;5034365;28;20560;-80
2021/03/31 14:21:52;;;;;;;3.50;1.50;;;27.70;27.70;;;;;;5033399;28;20675;-79
2021/03/31 14:24:17;;;;;;;2.60;1.73;;;27.70;27.70;;;;;;5034134;28;20588;-80
2021/03/31 14:26:43;;;;;;;1.73;1.40;;;27.70;27.70;;;;;;5021077;28;20198;-80